Time;durP1;ratioP1;P1;durP2;ratioP2;P2;SDS_P1;SDS_P2;PMS_P1;PMS_P2;Temp;Humidity;BMP_temperature;BMP_pressure;BME280_temperature;BME280_humidity;BME280_pressure;Samples;Min_cycle;Max_cycle;Signal;HPM_P1;HPM_P2
2023/09/29 00:01:33;;;;;;;45.90;25.70;;;;;;;18.99;60.64;100244.59;109390;1251;74411;-55
2023/09/29 00:04:05;;;;;;;40.70;24.60;;;;;;;18.92;61.15;100242.99;109416;1253;67240;-54
2023/09/29 00:06:35;;;;;;;50.20;27.90;;;;;;;18.96;60.98;100243.16;109233;1253;72621;-54
2023/09/29 00:09:06;;;;;;;47.40;27.10;;;;;;;19.00;60.69;100243.10;109174;1252;60581;-54
2023/09/29 00:11:33;;;;;;;42.50;25.80;;;;;;;19.02;60.54;100242.64;109492;1252;58847;-54
2023/09/29 00:13:59;;;;;;;47.50;24.70;;;;;;;19.04;60.45;100243.92;109501;1252;74574;-53
2023/09/29 00:16:26;;;;;;;35.80;23.00;;;;;;;18.95;60.83;100241.91;109512;1252;67339;-54
2023/09/29 00:18:53;;;;;;;30.40;21.60;;;;;;;18.91;61.22;100238.61;109581;1252;71425;-54
2023/09/29 00:21:20;;;;;;;34.80;21.80;;;;;;;18.87;61.58;100237.62;109506;1252;61694;-54
2023/09/29 00:23:48;;;;;;;32.70;23.10;;;;;;;18.89;61.61;100233.35;109676;1250;58966;-54
2023/09/29 00:26:14;;;;;;;35.80;24.60;;;;;;;18.93;60.98;100234.48;109692;1250;73216;-54
2023/09/29 00:28:41;;;;;;;45.50;24.70;;;;;;;18.93;60.98;100237.83;109733;1250;68533;-54
2023/09/29 00:31:08;;;;;;;40.20;24.30;;;;;;;18.78;61.63;100235.11;109754;1250;72494;-54
2023/09/29 00:33:35;;;;;;;41.90;25.10;;;;;;;18.79;61.50;100234.30;109629;1251;62338;-54
2023/09/29 00:36:02;;;;;;;38.20;23.80;;;;;;;18.80;61.35;100234.98;109725;1251;59126;-55
2023/09/29 00:38:29;;;;;;;39.90;25.00;;;;;;;18.74;61.32;100236.02;109209;1251;74536;-55
2023/09/29 00:40:55;;;;;;;35.40;23.50;;;;;;;18.69;61.81;100235.75;109617;1251;67158;-54
2023/09/29 00:43:22;;;;;;;35.40;22.20;;;;;;;18.67;61.98;100238.01;109738;1250;71577;-55
2023/09/29 00:45:49;;;;;;;34.40;24.40;;;;;;;18.55;62.45;100236.19;109707;1250;61139;-55
2023/09/29 00:48:15;;;;;;;37.60;25.00;;;;;;;18.42;63.24;100238.30;109279;1255;60078;-55
2023/09/29 00:50:42;;;;;;;38.40;26.20;;;;;;;18.34;63.63;100234.59;109105;1256;74489;-55
2023/09/29 00:53:12;;;;;;;36.50;24.20;;;;;;;18.31;63.70;100230.71;109272;1256;67366;-55
2023/09/29 00:55:41;;;;;;;42.20;24.70;;;;;;;18.22;64.04;100232.86;109258;1256;72586;-55
2023/09/29 00:58:08;;;;;;;44.10;24.10;;;;;;;18.24;64.27;100230.39;109156;1255;60586;-55
2023/09/29 01:00:40;;;;;;;50.80;24.60;;;;;;;18.31;64.04;100231.63;109256;1256;60113;-55
2023/09/29 01:03:09;;;;;;;45.90;24.00;;;;;;;18.30;63.76;100230.23;109291;1256;74669;-52
2023/09/29 01:05:38;;;;;;;38.80;22.50;;;;;;;18.16;64.11;100229.14;108988;1255;68912;-52
2023/09/29 01:08:08;;;;;;;;;;;;;;;18.16;64.50;100229.39;109301;1255;71515;-52
2023/09/29 01:10:38;;;;;;;32.30;20.90;;;;;;;18.23;63.99;100231.99;109288;1255;60731;-53
2023/09/29 01:13:05;;;;;;;44.60;23.60;;;;;;;18.13;64.91;100232.59;109035;1256;60007;-53
2023/09/29 01:15:36;;;;;;;44.50;24.70;;;;;;;18.11;64.85;100228.75;109325;1255;74486;-53
2023/09/29 01:18:03;;;;;;;40.60;24.90;;;;;;;18.22;63.96;100230.86;109306;1256;67900;-52
2023/09/29 01:20:30;;;;;;;33.10;21.90;;;;;;;18.17;63.66;100232.27;109589;1252;72375;-53
2023/09/29 01:22:57;;;;;;;40.90;23.10;;;;;;;17.97;64.87;100226.21;109099;1252;61676;-54
2023/09/29 01:25:24;;;;;;;39.10;24.20;;;;;;;17.93;65.16;100225.17;109512;1252;59101;-55
2023/09/29 01:27:52;;;;;;;42.80;24.10;;;;;;;17.95;65.16;100225.97;109527;1252;74557;-54
2023/09/29 01:30:18;;;;;;;43.90;25.40;;;;;;;17.89;65.71;100223.36;109547;1252;66245;-54
2023/09/29 01:32:47;;;;;;;38.40;25.30;;;;;;;17.79;65.82;100226.59;109525;1252;72682;-54
2023/09/29 01:35:21;;;;;;;38.00;23.20;;;;;;;17.76;65.97;100222.75;109541;1252;59628;-54
2023/09/29 01:37:49;;;;;;;39.70;25.60;;;;;;;17.75;66.30;100227.69;109550;1252;59127;-54
2023/09/29 01:40:16;;;;;;;40.80;24.90;;;;;;;17.68;66.24;100227.10;109520;1252;73747;-54
2023/09/29 01:42:43;;;;;;;36.10;25.00;;;;;;;17.60;66.12;100229.45;109560;1253;68535;-54
2023/09/29 01:45:16;;;;;;;40.10;27.20;;;;;;;17.60;65.68;100227.82;109233;1252;72621;-54
2023/09/29 01:47:45;;;;;;;35.80;24.40;;;;;;;17.50;65.87;100227.52;109473;1252;61767;-54
2023/09/29 01:50:17;;;;;;;42.10;26.70;;;;;;;17.44;66.15;100228.55;109553;1253;60148;-54
2023/09/29 01:52:44;;;;;;;39.50;25.80;;;;;;;17.37;66.41;100227.73;109538;1252;74758;-54
2023/09/29 01:55:19;;;;;;;35.20;25.80;;;;;;;17.42;66.28;100227.85;109479;1253;67527;-54
2023/09/29 01:57:49;;;;;;;41.10;25.00;;;;;;;17.44;66.01;100233.15;109475;1253;72089;-54
2023/09/29 02:00:23;;;;;;;35.80;26.00;;;;;;;17.37;66.13;100229.52;109530;1253;60536;-55
2023/09/29 02:02:52;;;;;;;40.10;26.30;;;;;;;17.25;66.09;100231.50;109573;1252;59303;-56
2023/09/29 02:05:20;;;;;;;49.50;27.60;;;;;;;17.15;66.47;100228.26;109574;1251;73224;-54
2023/09/29 02:07:47;;;;;;;59.20;29.60;;;;;;;17.15;66.24;100226.46;109560;1252;68550;-53
2023/09/29 02:10:14;;;;;;;64.10;32.80;;;;;;;17.07;66.67;100228.02;109553;1253;72727;-54
2023/09/29 02:12:47;;;;;;;69.40;33.50;;;;;;;17.07;66.84;100228.29;109277;1252;60706;-54
2023/09/29 02:15:15;;;;;;;73.80;36.80;;;;;;;17.10;66.88;100228.02;109550;1253;60054;-57
2023/09/29 02:17:42;;;;;;;69.80;37.00;;;;;;;17.04;67.09;100229.23;109525;1251;74542;-55
2023/09/29 02:20:15;;;;;;;95.40;40.60;;;;;;;17.07;66.49;100227.86;109633;1251;68625;-54
2023/09/29 02:22:42;;;;;;;93.30;39.50;;;;;;;16.96;66.90;100229.51;109647;1250;71157;-54
2023/09/29 02:25:16;;;;;;;87.80;40.40;;;;;;;16.81;67.58;100227.13;109565;1251;60493;-55
2023/09/29 02:27:43;;;;;;;81.20;39.70;;;;;;;16.79;67.53;100229.14;109688;1251;58972;-54
2023/09/29 02:30:12;;;;;;;74.40;37.00;;;;;;;16.63;68.52;100227.29;109754;1251;74581;-54
2023/09/29 02:32:41;;;;;;;80.60;35.10;;;;;;;16.54;69.24;100231.13;109723;1251;68767;-54
2023/09/29 02:35:10;;;;;;;59.00;29.10;;;;;;;16.55;69.07;100228.46;109701;1251;73049;-54
2023/09/29 02:37:36;;;;;;;57.40;27.70;;;;;;;16.57;69.16;100224.13;109655;1251;61886;-54
2023/09/29 02:40:06;;;;;;;63.50;32.70;;;;;;;16.54;69.60;100224.88;109429;1250;59064;-54
2023/09/29 02:42:34;;;;;;;56.10;29.30;;;;;;;16.50;69.66;100226.15;109645;1251;74779;-54
2023/09/29 02:45:00;;;;;;;53.40;30.20;;;;;;;16.60;69.13;100225.73;109761;1250;68636;-54
2023/09/29 02:47:27;;;;;;;57.10;30.50;;;;;;;16.72;68.87;100226.70;109706;1250;71594;-54
2023/09/29 02:49:54;;;;;;;52.80;31.10;;;;;;;16.69;69.63;100227.65;109691;1250;60519;-54
2023/09/29 02:52:20;;;;;;;56.60;29.30;;;;;;;16.75;69.38;100226.87;109301;1255;60279;-55
2023/09/29 02:54:48;;;;;;;43.10;27.40;;;;;;;16.73;68.87;100224.77;109267;1255;73241;-54
2023/09/29 02:57:14;;;;;;;53.50;28.00;;;;;;;16.72;68.63;100225.14;109367;1254;68808;-54
2023/09/29 02:59:42;;;;;;;54.30;30.20;;;;;;;16.70;68.33;100223.63;109243;1254;72508;-53
2023/09/29 03:02:08;;;;;;;58.00;29.70;;;;;;;16.65;68.68;100223.39;109347;1254;60506;-54
2023/09/29 03:04:36;;;;;;;56.10;32.70;;;;;;;16.63;69.40;100225.88;109194;1255;59027;-54
2023/09/29 03:07:03;;;;;;;58.80;32.10;;;;;;;16.55;70.07;100228.08;109180;1256;74796;-54
2023/09/29 03:09:31;;;;;;;69.90;34.40;;;;;;;16.55;70.13;100227.05;109154;1256;68595;-54
2023/09/29 03:11:59;;;;;;;64.50;31.70;;;;;;;16.62;70.05;100232.88;109201;1256;71524;-54
2023/09/29 03:14:26;;;;;;;52.40;31.10;;;;;;;16.65;69.71;100233.40;109209;1255;59530;-54
2023/09/29 03:16:58;;;;;;;55.30;30.80;;;;;;;16.57;69.40;100230.42;109194;1255;60144;-55
2023/09/29 03:19:26;;;;;;;55.70;30.70;;;;;;;16.55;69.17;100232.15;109179;1256;73703;-55
2023/09/29 03:21:53;;;;;;;48.70;26.90;;;;;;;16.57;68.60;100231.54;109190;1256;68486;-54
2023/09/29 03:24:20;;;;;;;52.20;28.90;;;;;;;16.52;68.29;100230.85;109593;1251;70721;-54
2023/09/29 03:26:49;;;;;;;46.80;27.80;;;;;;;16.42;68.62;100230.62;109689;1250;61061;-54
2023/09/29 03:29:17;;;;;;;;;;;;;;;16.32;68.71;100232.55;109733;1251;58935;-54
2023/09/29 03:31:44;;;;;;;;;;;;;;;16.29;68.43;100230.89;109701;1251;74364;-54
2023/09/29 03:34:11;;;;;;;51.00;28.80;;;;;;;16.27;68.39;100232.56;109715;1250;68573;-55
2023/09/29 03:36:38;;;;;;;54.90;29.30;;;;;;;16.18;68.85;100231.61;109651;1251;72649;-54
2023/09/29 03:39:06;;;;;;;52.80;29.90;;;;;;;16.06;69.79;100232.50;109206;1251;61741;-54
2023/09/29 03:41:35;;;;;;;53.40;30.30;;;;;;;15.91;71.08;100228.26;109658;1251;59980;-54
2023/09/29 03:44:02;;;;;;;63.40;29.30;;;;;;;16.14;70.09;100225.88;109708;1250;73393;-54
2023/09/29 03:46:29;;;;;;;54.20;30.00;;;;;;;16.14;70.16;100221.66;109658;1251;68597;-55
2023/09/29 03:48:56;;;;;;;57.20;30.90;;;;;;;16.15;70.74;100220.83;109429;1251;72585;-54
2023/09/29 03:51:23;;;;;;;61.50;33.80;;;;;;;16.15;71.09;100220.41;109318;1254;61041;-54
2023/09/29 03:53:50;;;;;;;62.50;28.90;;;;;;;15.98;71.52;100220.06;109739;1250;59367;-54
2023/09/29 03:56:17;;;;;;;59.30;30.70;;;;;;;15.88;71.89;100218.73;109730;1251;73644;-54
2023/09/29 03:58:44;;;;;;;71.40;29.40;;;;;;;15.79;71.97;100216.94;109707;1250;68717;-54
2023/09/29 04:01:11;;;;;;;66.40;30.00;;;;;;;15.82;71.73;100218.93;109692;1251;71431;-54
2023/09/29 04:03:38;;;;;;;59.70;28.40;;;;;;;15.74;72.13;100221.70;109599;1251;61631;-54
2023/09/29 04:06:05;;;;;;;52.00;26.20;;;;;;;15.81;72.16;100219.44;109629;1252;60096;-54
2023/09/29 04:08:32;;;;;;;42.90;25.20;;;;;;;15.85;71.97;100221.71;109595;1253;74429;-54
2023/09/29 04:10:58;;;;;;;39.60;24.00;;;;;;;15.83;72.44;100219.48;109649;1252;69005;-54
2023/09/29 04:13:25;;;;;;;43.60;26.10;;;;;;;15.87;72.78;100220.50;109594;1252;71130;-55
2023/09/29 04:15:51;;;;;;;46.00;26.10;;;;;;;15.92;72.70;100220.12;109630;1251;61767;-54
2023/09/29 04:18:18;;;;;;;45.70;27.40;;;;;;;15.92;73.54;100222.87;109552;1253;59990;-55
2023/09/29 04:20:45;;;;;;;37.10;26.70;;;;;;;16.10;73.36;100222.41;109621;1253;73267;-55
2023/09/29 04:23:11;;;;;;;51.80;29.60;;;;;;;16.14;73.74;100221.60;109582;1252;68510;-55
2023/09/29 04:25:38;;;;;;;56.80;26.30;;;;;;;16.18;74.01;100221.05;109598;1252;71701;-54
2023/09/29 04:28:05;;;;;;;48.60;26.00;;;;;;;16.28;73.76;100225.30;109549;1253;60385;-55
2023/09/29 04:30:32;;;;;;;56.10;26.00;;;;;;;16.31;73.34;100230.83;109500;1252;117360;-54
2023/09/29 04:32:59;;;;;;;50.60;24.60;;;;;;;16.35;72.88;100231.35;109618;1253;73333;-54
2023/09/29 04:35:25;;;;;;;43.70;25.80;;;;;;;16.42;72.62;100228.29;109521;1252;68529;-55
2023/09/29 04:37:52;;;;;;;48.20;28.70;;;;;;;16.64;74.31;100226.65;109494;1251;70332;-54
2023/09/29 04:40:19;;;;;;;53.20;25.70;;;;;;;17.22;72.50;100225.32;109262;1253;61823;-54
2023/09/29 04:42:46;;;;;;;36.60;24.80;;;;;;;17.66;70.85;100230.32;109646;1252;58826;-53
2023/09/29 04:45:12;;;;;;;64.30;26.70;;;;;;;18.12;69.18;100230.08;109609;1251;74410;-55
2023/09/29 04:47:39;;;;;;;46.80;25.30;;;;;;;18.56;67.25;100235.52;109593;1252;68620;-55
2023/09/29 04:50:10;;;;;;;61.10;27.40;;;;;;;18.87;65.55;100241.36;109595;1252;72657;-55
2023/09/29 04:52:37;;;;;;;41.30;24.80;;;;;;;19.28;64.75;100239.45;109569;1252;61665;-54
2023/09/29 04:55:04;;;;;;;50.00;26.10;;;;;;;19.62;62.65;100241.52;109609;1252;59971;-54
2023/09/29 04:57:31;;;;;;;137.30;32.70;;;;;;;19.87;61.37;100240.82;109161;1251;74669;-55
2023/09/29 04:59:58;;;;;;;89.90;26.80;;;;;;;20.31;60.76;100244.16;109650;1253;68701;-54
2023/09/29 05:02:29;;;;;;;77.80;26.00;;;;;;;20.87;59.13;100251.24;109353;1252;72634;-55
2023/09/29 05:04:56;;;;;;;52.50;24.90;;;;;;;21.09;58.05;100252.45;109530;1253;59783;-54
2023/09/29 05:07:23;;;;;;;58.40;24.20;;;;;;;21.47;56.18;100253.95;109530;1252;60219;-53
2023/09/29 05:09:49;;;;;;;54.60;24.20;;;;;;;21.67;55.46;100251.21;109561;1253;72788;-54
2023/09/29 05:12:16;;;;;;;90.70;26.30;;;;;;;21.94;54.49;100251.02;109263;1253;67420;-55
2023/09/29 05:14:43;;;;;;;51.30;23.70;;;;;;;22.25;54.50;100250.20;109252;1253;71647;-53
2023/09/29 05:17:10;;;;;;;55.80;26.10;;;;;;;22.58;54.00;100251.12;109581;1253;60362;-54
2023/09/29 05:19:36;;;;;;;53.50;26.40;;;;;;;22.94;53.05;100253.69;109389;1252;59059;-55
2023/09/29 05:22:03;;;;;;;53.80;25.90;;;;;;;23.32;51.75;100258.64;109597;1251;73623;-55
2023/09/29 05:24:29;;;;;;;67.10;23.80;;;;;;;23.78;50.60;100259.74;109648;1250;68630;-53
2023/09/29 05:26:56;;;;;;;46.80;20.70;;;;;;;23.93;48.86;100262.26;109741;1251;71502;-54
2023/09/29 05:29:23;;;;;;;42.80;22.70;;;;;;;23.77;48.34;100263.02;109716;1250;62864;-55
2023/09/29 05:31:49;;;;;;;60.20;23.50;;;;;;;23.66;48.63;100263.52;109559;1251;59132;-54
2023/09/29 05:34:17;;;;;;;52.80;22.70;;;;;;;24.08;48.21;100265.43;109745;1250;74479;-54
2023/09/29 05:36:45;;;;;;;81.00;24.40;;;;;;;24.58;47.19;100268.88;109705;1251;67437;-53
2023/09/29 05:39:12;;;;;;;83.10;24.50;;;;;;;24.94;46.11;100272.48;109721;1251;71269;-55
2023/09/29 05:41:39;;;;;;;77.60;24.00;;;;;;;25.12;44.87;100270.40;109678;1251;61748;-55
2023/09/29 05:44:06;;;;;;;108.70;25.00;;;;;;;25.15;44.76;100275.10;109326;1251;60153;-55
2023/09/29 05:46:32;;;;;;;86.80;23.70;;;;;;;25.27;44.57;100279.11;109729;1251;74605;-54
2023/09/29 05:48:59;;;;;;;153.10;30.20;;;;;;;25.72;43.71;100279.27;109684;1250;68613;-55
2023/09/29 05:51:26;;;;;;;89.70;25.20;;;;;;;25.96;42.91;100277.52;109696;1250;71244;-55
2023/09/29 05:53:53;;;;;;;76.50;20.70;;;;;;;26.26;42.44;100277.44;109322;1251;60147;-56
2023/09/29 05:56:20;;;;;;;80.30;20.50;;;;;;;26.71;41.51;100279.98;109732;1251;59003;-55
2023/09/29 05:58:47;;;;;;;80.10;20.80;;;;;;;27.02;40.63;100283.39;109724;1251;74376;-55
2023/09/29 06:01:14;;;;;;;137.30;46.10;;;;;;;26.98;40.39;100282.61;109742;1251;68155;-55
2023/09/29 06:03:41;;;;;;;138.00;61.60;;;;;;;27.24;39.85;100285.53;109678;1253;72716;-55
2023/09/29 06:06:11;;;;;;;143.00;61.20;;;;;;;27.47;39.37;100288.90;109596;1252;60155;-55
2023/09/29 06:08:38;;;;;;;121.60;50.30;;;;;;;27.69;39.15;100286.61;109666;1252;59110;-55
2023/09/29 06:11:07;;;;;;;111.50;49.60;;;;;;;27.99;38.93;100291.88;109537;1253;74556;-55
2023/09/29 06:13:34;;;;;;;116.50;45.60;;;;;;;28.11;37.95;100292.58;109556;1252;67240;-55
2023/09/29 06:16:03;;;;;;;62.00;22.40;;;;;;;28.08;37.56;100295.26;109593;1252;73025;-54
2023/09/29 06:18:30;;;;;;;37.10;17.40;;;;;;;27.77;37.22;100296.20;109588;1252;60123;-56
2023/09/29 06:20:56;;;;;;;51.80;19.70;;;;;;;27.63;37.36;100293.36;109585;1251;59000;-55
2023/09/29 06:23:23;;;;;;;32.30;18.80;;;;;;;27.50;37.20;100297.17;109279;1253;74495;-56
2023/09/29 06:25:59;;;;;;;35.30;17.80;;;;;;;27.65;36.79;100292.88;109605;1253;68406;-55
2023/09/29 06:28:26;;;;;;;40.80;17.60;;;;;;;28.24;36.40;100296.69;109598;1252;72498;-56
2023/09/29 06:30:56;;;;;;;39.50;15.90;;;;;;;28.52;35.76;100294.56;109619;1253;58980;-55
2023/09/29 06:33:24;;;;;;;32.60;16.60;;;;;;;28.64;35.58;100296.29;109613;1253;60352;-55
2023/09/29 06:35:51;;;;;;;;;;;;;;;28.69;35.69;100298.55;109669;1252;74561;-55
2023/09/29 06:38:18;;;;;;;45.50;22.40;;;;;;;28.66;35.31;100294.77;109570;1253;68451;-55
2023/09/29 06:40:45;;;;;;;33.00;20.00;;;;;;;28.67;35.64;100295.34;109624;1252;72850;-55
2023/09/29 06:43:12;;;;;;;36.40;18.00;;;;;;;28.70;35.17;100293.27;109607;1252;60200;-56
2023/09/29 06:45:38;;;;;;;28.10;19.20;;;;;;;28.62;35.28;100294.90;109619;1253;60126;-54
2023/09/29 06:48:25;;;;;;;49.40;19.30;;;;;;;28.75;35.06;100292.83;109597;1252;74565;-56
2023/09/29 06:50:52;;;;;;;35.20;17.40;;;;;;;28.89;34.57;100295.54;109650;1253;68479;-55
2023/09/29 06:53:18;;;;;;;26.70;17.40;;;;;;;28.71;34.80;100295.04;109439;1251;72885;-56
2023/09/29 06:55:45;;;;;;;28.90;21.40;;;;;;;28.50;34.95;100291.67;109577;1252;58974;-55
2023/09/29 06:58:12;;;;;;;57.50;34.30;;;;;;;28.51;34.72;100294.55;109634;1252;58948;-55
2023/09/29 07:00:38;;;;;;;42.80;26.70;;;;;;;28.66;35.01;100297.27;109453;1253;74449;-55
2023/09/29 07:03:11;;;;;;;37.90;24.20;;;;;;;28.97;34.45;100300.64;109582;1254;68662;-55
2023/09/29 07:05:38;;;;;;;49.80;31.30;;;;;;;29.27;34.18;100301.84;109610;1252;72553;-55
2023/09/29 07:08:05;;;;;;;26.90;17.80;;;;;;;29.19;33.84;100304.68;109618;1253;59116;-55
2023/09/29 07:10:32;;;;;;;27.40;18.70;;;;;;;28.81;34.09;100303.58;109553;1252;59001;-56
2023/09/29 07:12:59;;;;;;;28.00;17.30;;;;;;;28.85;34.35;100303.95;109636;1252;73222;-55
2023/09/29 07:15:26;;;;;;;26.90;16.20;;;;;;;29.46;33.85;100307.31;109613;1253;69016;-55
2023/09/29 07:17:53;;;;;;;26.50;16.10;;;;;;;29.64;33.42;100310.77;109613;1251;72499;-56
2023/09/29 07:20:20;;;;;;;37.40;17.50;;;;;;;29.78;33.23;100308.27;109676;1251;60415;-55
2023/09/29 07:22:46;;;;;;;41.30;17.70;;;;;;;29.85;33.13;100308.82;109494;1257;60095;-54
2023/09/29 07:25:14;;;;;;;29.70;16.90;;;;;;;30.26;32.93;100307.94;109726;1250;74413;-55
2023/09/29 07:27:40;;;;;;;23.10;14.70;;;;;;;30.49;32.19;100310.39;109716;1251;68401;-55
2023/09/29 07:30:08;;;;;;;20.00;12.60;;;;;;;30.61;31.58;100312.64;109735;1251;72530;-55
2023/09/29 07:32:36;;;;;;;25.10;13.50;;;;;;;30.44;31.72;100309.91;109700;1250;59459;-55
2023/09/29 07:35:04;;;;;;;26.60;14.60;;;;;;;30.55;31.88;100312.08;109785;1251;60273;-55
2023/09/29 07:37:31;;;;;;;22.80;13.30;;;;;;;30.67;31.92;100312.18;109728;1251;74405;-55
2023/09/29 07:39:58;;;;;;;20.50;12.40;;;;;;;30.67;31.90;100313.29;109703;1251;67232;-56
2023/09/29 07:42:24;;;;;;;21.90;12.80;;;;;;;30.71;31.57;100312.33;109714;1251;72437;-55
2023/09/29 07:44:51;;;;;;;22.70;13.50;;;;;;;30.72;31.76;100310.44;109704;1250;58960;-55
2023/09/29 07:47:17;;;;;;;21.90;14.30;;;;;;;31.11;31.58;100311.98;109668;1251;58877;-56
2023/09/29 07:49:44;;;;;;;18.60;13.30;;;;;;;31.75;31.13;100313.23;109444;1250;74543;-56
2023/09/29 07:52:11;;;;;;;22.40;11.70;;;;;;;31.84;30.34;100314.52;109762;1251;58975;-56
2023/09/29 07:54:37;;;;;;;16.70;11.70;;;;;;;31.77;30.22;100312.53;109482;1251;62426;-55
2023/09/29 07:57:04;;;;;;;29.20;13.60;;;;;;;31.66;30.58;100311.70;109682;1250;58944;-55
2023/09/29 07:59:31;;;;;;;23.40;12.60;;;;;;;31.87;30.65;100310.83;109759;1251;59029;-55
2023/09/29 08:01:58;;;;;;;19.40;10.40;;;;;;;32.44;29.88;100311.55;109733;1251;66070;-55
2023/09/29 08:04:25;;;;;;;23.10;11.80;;;;;;;32.57;29.28;100314.06;109610;1253;59909;-55
2023/09/29 08:06:52;;;;;;;17.50;11.70;;;;;;;32.58;29.59;100310.89;109566;1253;63817;-55
2023/09/29 08:09:19;;;;;;;15.90;11.70;;;;;;;33.11;29.24;100313.23;109432;1252;59798;-54
2023/09/29 08:11:47;;;;;;;23.60;9.80;;;;;;;33.38;28.72;100311.42;109585;1253;59820;-55
2023/09/29 08:14:14;;;;;;;10.80;9.00;;;;;;;33.35;28.00;100315.13;109677;1253;67337;-55
2023/09/29 08:16:41;;;;;;;11.40;8.10;;;;;;;33.32;27.82;100312.98;109614;1252;60258;-55
2023/09/29 08:19:08;;;;;;;12.00;7.40;;;;;;;33.37;27.15;100315.23;109583;1251;63980;-55
2023/09/29 08:21:34;;;;;;;18.10;7.30;;;;;;;32.90;27.51;100312.86;109607;1254;59974;-55
2023/09/29 08:24:06;;;;;;;10.60;7.70;;;;;;;31.73;28.73;100303.38;109525;1253;59773;-56
2023/09/29 08:26:34;;;;;;;18.20;8.90;;;;;;;32.27;28.66;100307.42;109627;1253;66721;-58
2023/09/29 08:29:01;;;;;;;12.90;8.40;;;;;;;33.04;27.65;100310.64;109601;1253;59722;-55
2023/09/29 08:31:28;;;;;;;18.50;7.60;;;;;;;33.72;27.32;100312.91;109606;1253;63996;-56
2023/09/29 08:33:55;;;;;;;11.10;6.00;;;;;;;34.04;26.92;100314.27;109547;1253;59724;-58
2023/09/29 08:36:22;;;;;;;15.30;6.40;;;;;;;34.03;25.98;100314.36;109583;1252;60275;-55
2023/09/29 08:38:48;;;;;;;11.70;6.30;;;;;;;33.81;25.79;100315.65;109601;1253;66614;-55
2023/09/29 08:41:16;;;;;;;14.80;6.20;;;;;;;33.68;25.97;100312.83;109565;1253;59749;-55
2023/09/29 08:43:43;;;;;;;13.10;6.40;;;;;;;33.84;25.60;100315.58;109626;1255;63792;-56
2023/09/29 08:46:26;;;;;;;12.40;6.10;;;;;;;33.47;25.48;100310.58;109583;1252;59773;-55
2023/09/29 08:48:53;;;;;;;7.60;5.00;;;;;;;32.80;26.24;100302.88;109543;1252;60184;-55
2023/09/29 08:51:20;;;;;;;10.50;5.60;;;;;;;32.94;25.50;100300.83;109591;1252;65590;-54
2023/09/29 08:53:47;;;;;;;9.40;6.10;;;;;;;33.09;25.60;100303.23;109578;1252;60051;-55
2023/09/29 08:56:16;;;;;;;;;;;;;;;33.25;25.71;100303.40;109624;1251;64045;-55
2023/09/29 08:58:42;;;;;;;16.60;5.50;;;;;;;33.25;24.21;100307.30;109566;1253;60167;-55
2023/09/29 09:01:09;;;;;;;9.00;5.00;;;;;;;33.07;24.42;100308.08;109615;1254;59772;-55
2023/09/29 09:03:36;;;;;;;11.80;5.90;;;;;;;33.16;24.34;100311.69;109550;1253;66577;-55
2023/09/29 09:06:21;;;;;;;15.50;6.10;;;;;;;33.42;23.69;100315.01;109571;1253;59924;-54
2023/09/29 09:08:49;;;;;;;13.90;5.90;;;;;;;33.41;22.97;100317.16;109561;1253;64096;-55
2023/09/29 09:11:16;;;;;;;11.00;5.20;;;;;;;33.62;23.25;100310.32;109540;1252;59768;-55
2023/09/29 09:13:52;;;;;;;10.70;5.40;;;;;;;34.24;23.13;100312.79;109501;1251;59778;-54
2023/09/29 09:16:18;;;;;;;14.50;5.80;;;;;;;33.91;22.93;100313.91;109587;1256;67423;-54
2023/09/29 09:18:45;;;;;;;12.20;5.70;;;;;;;33.05;23.56;100309.70;109622;1250;59946;-54
2023/09/29 09:21:12;;;;;;;9.20;5.20;;;;;;;33.07;23.00;100308.86;109644;1251;63785;-54
2023/09/29 09:23:39;;;;;;;7.80;6.00;;;;;;;33.28;23.08;100307.06;109636;1251;59805;-54
2023/09/29 09:26:16;;;;;;;12.30;5.30;;;;;;;33.67;22.79;100310.66;109731;1254;60064;-55
2023/09/29 09:28:43;;;;;;;8.60;5.80;;;;;;;34.21;22.30;100315.09;109833;1251;65380;-54
2023/09/29 09:31:11;;;;;;;7.30;5.60;;;;;;;34.37;21.97;100321.02;109729;1254;59932;-54
2023/09/29 09:33:38;;;;;;;9.90;5.60;;;;;;;34.62;21.21;100322.30;109746;1251;63842;-54
2023/09/29 09:36:10;;;;;;;12.00;5.00;;;;;;;34.81;21.11;100323.48;109746;1250;59782;-54
2023/09/29 09:38:38;;;;;;;9.00;5.50;;;;;;;34.72;20.85;100316.80;109772;1251;59811;-54
2023/09/29 09:41:05;;;;;;;9.20;5.40;;;;;;;34.48;21.12;100316.56;109760;1251;67090;-55
2023/09/29 09:43:35;;;;;;;8.00;5.10;;;;;;;34.54;20.85;100316.00;109722;1250;60342;-54
2023/09/29 09:46:04;;;;;;;7.80;4.90;;;;;;;34.48;20.64;100313.29;109350;1251;63838;-55
2023/09/29 09:48:56;;;;;;;17.60;6.10;;;;;;;34.51;20.62;100307.73;109697;1250;59825;-55
2023/09/29 09:51:34;;;;;;;7.50;5.00;;;;;;;34.50;20.76;100308.44;109014;1259;59941;-55
2023/09/29 09:54:04;;;;;;;5.60;4.70;;;;;;;34.27;20.84;100306.84;108959;1260;66686;-55
2023/09/29 09:56:38;;;;;;;9.60;5.20;;;;;;;34.26;21.13;100304.85;108716;1260;59908;-56
2023/09/29 09:59:05;;;;;;;11.30;5.50;;;;;;;34.31;20.89;100302.40;108990;1260;63753;-56
2023/09/29 10:01:32;;;;;;;10.70;4.80;;;;;;;34.34;20.94;100300.64;108927;1259;59807;-56
2023/09/29 10:04:02;;;;;;;11.10;5.30;;;;;;;34.26;20.92;100298.47;108893;1260;59849;-56
2023/09/29 10:06:30;;;;;;;8.70;5.40;;;;;;;34.39;21.22;100295.13;108974;1260;65558;-56
2023/09/29 10:09:10;;;;;;;8.40;5.00;;;;;;;34.80;20.83;100294.58;108963;1264;60367;-56
2023/09/29 10:11:42;;;;;;;5.70;4.70;;;;;;;34.74;21.19;100292.92;108947;1261;73657;-56
2023/09/29 10:14:09;;;;;;;9.20;5.00;;;;;;;34.73;20.79;100288.05;108954;1260;59839;-56
2023/09/29 10:16:36;;;;;;;9.40;5.50;;;;;;;34.98;20.82;100283.93;108794;1260;59871;-55
2023/09/29 10:19:11;;;;;;;11.60;6.00;;;;;;;35.01;20.42;100289.10;108877;1261;67384;-56
2023/09/29 10:21:50;;;;;;;19.00;5.40;;;;;;;34.90;20.47;100286.50;108881;1264;60868;-55
2023/09/29 10:24:26;;;;;;;17.80;5.70;;;;;;;34.59;20.43;100288.54;108865;1260;63835;-56
2023/09/29 10:26:53;;;;;;;17.80;6.10;;;;;;;34.44;20.74;100281.13;108718;1261;59823;-55
2023/09/29 10:29:24;;;;;;;9.40;5.30;;;;;;;34.48;20.63;100278.27;109153;1254;59754;-56
2023/09/29 10:31:53;;;;;;;10.10;5.00;;;;;;;34.72;20.90;100272.84;109367;1254;65451;-55
2023/09/29 10:34:24;;;;;;;11.40;6.20;;;;;;;34.99;21.03;100275.02;109401;1253;59858;-55
2023/09/29 10:36:54;;;;;;;10.50;5.10;;;;;;;35.13;20.44;100267.65;109523;1252;62925;-55
2023/09/29 10:39:27;;;;;;;12.30;6.00;;;;;;;34.62;20.68;100262.08;109473;1251;60043;-55
2023/09/29 10:41:58;;;;;;;22.40;6.10;;;;;;;34.35;21.19;100260.35;109244;1252;59837;-55
2023/09/29 10:44:28;;;;;;;13.30;5.70;;;;;;;34.06;21.20;100255.23;109568;1254;66872;-55
2023/09/29 10:46:55;;;;;;;8.70;6.10;;;;;;;33.29;21.41;100252.63;109529;1253;60332;-55
2023/09/29 10:49:31;;;;;;;10.00;5.40;;;;;;;33.39;21.27;100253.70;109501;1253;63810;-55
2023/09/29 10:51:58;;;;;;;7.10;5.40;;;;;;;33.71;21.18;100249.92;109530;1253;59747;-55
2023/09/29 10:54:25;;;;;;;10.10;5.40;;;;;;;33.97;21.13;100245.18;109585;1253;59872;-54
2023/09/29 10:56:53;;;;;;;8.80;5.80;;;;;;;34.08;20.74;100243.61;109335;1253;67284;-54
2023/09/29 10:59:19;;;;;;;15.40;5.70;;;;;;;34.41;20.70;100238.38;109592;1254;59797;-54
2023/09/29 11:01:46;;;;;;;23.10;7.80;;;;;;;34.45;20.67;100238.14;109553;1252;65063;-54
2023/09/29 11:04:13;;;;;;;12.30;6.30;;;;;;;34.12;21.08;100237.02;109556;1253;59760;-55
2023/09/29 11:06:49;;;;;;;6.60;5.70;;;;;;;34.15;20.82;100239.81;109540;1251;59823;-55
2023/09/29 11:09:19;;;;;;;14.40;5.90;;;;;;;34.16;20.63;100237.91;109706;1251;67349;-55